Time;durP1;ratioP1;P1;durP2;ratioP2;P2;SDS_P1;SDS_P2;PMS_P1;PMS_P2;Temp;Humidity;BMP_temperature;BMP_pressure;BME280_temperature;BME280_humidity;BME280_pressure;Samples;Min_cycle;Max_cycle;Signal;HPM_P1;HPM_P2
2022/08/31 00:04:36;;;;;;;3.90;2.80;;;;;;;21.06;49.55;100257.38;4989657;28;20242;-72
2022/08/31 00:07:01;;;;;;;4.10;3.13;;;;;;;20.95;49.58;100257.59;4991659;28;20635;-69
2022/08/31 00:09:26;;;;;;;6.50;3.33;;;;;;;20.93;50.01;100262.97;4991171;28;20210;-69
2022/08/31 00:11:52;;;;;;;5.03;3.00;;;;;;;20.92;49.80;100255.28;4980989;28;20243;-71
2022/08/31 00:14:17;;;;;;;5.70;2.97;;;;;;;21.00;49.93;100259.75;4983906;28;20253;-72
2022/08/31 00:16:44;;;;;;;5.27;2.87;;;;;;;21.04;49.54;100258.50;4992129;28;20233;-69
2022/08/31 00:19:11;;;;;;;5.07;3.33;;;;;;;20.98;49.85;100254.69;4989017;28;20283;-69
2022/08/31 00:21:38;;;;;;;7.37;3.40;;;;;;;20.91;50.05;100251.84;4993493;28;20229;-70
2022/08/31 00:24:03;;;;;;;3.43;3.13;;;;;;;20.90;50.16;100254.59;5003408;28;20187;-70
2022/08/31 00:26:29;;;;;;;5.00;2.90;;;;;;;20.84;50.27;100255.16;4991439;28;20278;-70
2022/08/31 00:28:54;;;;;;;5.97;2.80;;;;;;;20.91;49.95;100254.47;5005387;28;20241;-70
2022/08/31 00:31:19;;;;;;;4.27;2.77;;;;;;;20.91;50.26;100248.38;5003245;28;20237;-70
2022/08/31 00:33:50;;;;;;;6.67;2.90;;;;;;;20.78;50.83;100259.22;4986568;28;20663;-70
2022/08/31 00:36:17;;;;;;;6.10;3.23;;;;;;;20.79;50.43;100253.03;4983608;28;20188;-70
2022/08/31 00:38:43;;;;;;;4.83;3.43;;;;;;;20.85;50.88;100251.59;4982164;28;20662;-70
2022/08/31 00:41:09;;;;;;;6.47;2.93;;;;;;;20.79;50.61;100256.44;4980021;28;20241;-71
2022/08/31 00:43:47;;;;;;;4.13;2.70;;;;;;;20.84;50.32;100257.78;4974243;28;20227;-70
2022/08/31 00:46:18;;;;;;;5.33;3.47;;;;;;;20.88;50.45;100254.75;4993328;28;20187;-70
2022/08/31 00:48:57;;;;;;;3.90;3.07;;;;;;;20.84;50.61;100255.16;4990141;28;20180;-71
2022/08/31 00:51:24;;;;;;;4.87;2.80;;;;;;;20.96;50.35;100251.38;4987714;28;20265;-70
2022/08/31 00:53:50;;;;;;;7.40;3.67;;;;;;;20.88;50.58;100257.34;4986140;28;20651;-71
2022/08/31 00:56:15;;;;;;;8.43;3.50;;;;;;;20.78;50.80;100257.41;4979966;28;20179;-70
2022/08/31 00:58:42;;;;;;;4.33;2.97;;;;;;;20.66;51.15;100255.13;4983096;28;20191;-70
2022/08/31 01:01:09;;;;;;;5.27;3.23;;;;;;;20.71;51.25;100248.50;4979001;28;20227;-70
2022/08/31 01:03:34;;;;;;;3.50;3.20;;;;;;;20.79;51.40;100251.22;4988630;28;20195;-70
2022/08/31 01:06:01;;;;;;;6.27;3.20;;;;;;;20.86;50.99;100243.59;4990132;28;20237;-71
2022/08/31 01:08:27;;;;;;;5.83;3.30;;;;;;;20.90;50.96;100246.75;4989384;28;20176;-71
2022/08/31 01:10:52;;;;;;;7.20;2.80;;;;;;;20.93;50.82;100239.44;4982695;28;20322;-71
2022/08/31 01:13:17;;;;;;;5.87;3.10;;;;;;;20.88;50.90;100246.09;4992592;28;20711;-71
2022/08/31 01:15:51;;;;;;;5.87;3.37;;;;;;;20.77;51.21;100244.50;4990801;28;20211;-71
2022/08/31 01:18:18;;;;;;;8.07;3.10;;;;;;;20.74;51.47;100250.84;5005668;28;21227;-71
2022/08/31 01:20:59;;;;;;;7.50;3.17;;;;;;;20.59;51.65;100250.47;4979320;28;20246;-71
2022/08/31 01:23:28;;;;;;;4.33;3.27;;;;;;;20.54;51.97;100257.09;4989337;28;20188;-70
2022/08/31 01:25:56;;;;;;;4.17;2.90;;;;;;;20.49;52.45;100249.69;5004825;28;20629;-71
2022/08/31 01:28:22;;;;;;;4.80;2.70;;;;;;;20.48;52.50;100251.47;5007970;28;20278;-70
2022/08/31 01:31:07;;;;;;;3.63;2.63;;;;;;;20.40;52.72;100247.94;5004537;28;20327;-70
2022/08/31 01:33:35;;;;;;;7.47;3.13;;;;;;;20.36;53.22;100246.59;4986023;28;20307;-70
2022/08/31 01:36:01;;;;;;;4.37;2.93;;;;;;;20.33;53.50;100247.72;4989407;28;20204;-71
2022/08/31 01:38:27;;;;;;;7.10;3.17;;;;;;;20.34;53.28;100244.09;4989937;28;20603;-71
2022/08/31 01:40:57;;;;;;;5.93;2.80;;;;;;;20.32;53.12;100246.88;4980200;28;20231;-70
2022/08/31 01:43:24;;;;;;;6.63;3.10;;;;;;;20.29;53.42;100243.72;4992349;28;20192;-72
2022/08/31 01:45:51;;;;;;;3.30;2.83;;;;;;;20.35;53.48;100250.16;4988096;28;20239;-72
2022/08/31 01:48:18;;;;;;;3.50;3.20;;;;;;;20.30;53.51;100254.03;4985224;28;20533;-72
2022/08/31 01:50:43;;;;;;;4.90;2.93;;;;;;;20.30;53.47;100255.81;4982746;28;20223;-72
2022/08/31 01:53:09;;;;;;;11.13;3.03;;;;;;;20.30;53.35;100259.28;4990878;28;20305;-71
2022/08/31 01:55:35;;;;;;;5.67;3.23;;;;;;;20.32;53.69;100272.19;4993692;28;20225;-71
2022/08/31 01:58:01;;;;;;;4.60;3.10;;;;;;;20.24;53.95;100272.91;4995749;28;20194;-70
2022/08/31 02:00:27;;;;;;;4.33;3.20;;;;;;;20.22;54.06;100264.38;4985006;28;20300;-70
2022/08/31 02:02:56;;;;;;;4.53;2.97;;;;;;;20.19;54.37;100275.09;4990172;28;20210;-73
2022/08/31 02:05:21;;;;;;;4.60;2.87;;;;;;;20.27;54.09;100277.81;4981381;28;20172;-70
2022/08/31 02:07:46;;;;;;;4.53;2.70;;;;;;;20.32;54.07;100277.41;4993905;28;20627;-70
2022/08/31 02:10:12;;;;;;;5.20;3.30;;;;;;;20.32;53.78;100280.81;4985038;28;20258;-70
2022/08/31 02:12:37;;;;;;;5.97;3.07;;;;;;;20.37;53.92;100269.97;4981861;28;20216;-71
2022/08/31 02:15:03;;;;;;;6.63;2.97;;;;;;;20.33;53.90;100276.44;4989714;28;20215;-70
2022/08/31 02:17:28;;;;;;;4.53;2.87;;;;;;;20.17;54.26;100282.28;5008183;28;20186;-72
2022/08/31 02:19:54;;;;;;;6.00;3.27;;;;;;;20.21;54.55;100282.81;4994240;28;20187;-71
2022/08/31 02:22:19;;;;;;;5.53;2.93;;;;;;;20.15;54.87;100289.41;4997305;28;20304;-71
2022/08/31 02:24:44;;;;;;;4.07;2.53;;;;;;;20.13;54.68;100294.78;4988446;28;20183;-71
2022/08/31 02:27:09;;;;;;;3.77;3.23;;;;;;;20.24;54.67;100291.19;4993064;28;20499;-71
2022/08/31 02:29:35;;;;;;;4.93;3.30;;;;;;;20.35;54.29;100290.16;4994451;28;20656;-71
2022/08/31 02:32:00;;;;;;;5.17;2.83;;;;;;;20.30;54.18;100300.22;5001488;28;20233;-71
2022/08/31 02:34:25;;;;;;;5.43;3.23;;;;;;;20.25;54.80;100297.22;4994877;28;20286;-71
2022/08/31 02:36:51;;;;;;;5.33;3.60;;;;;;;20.47;53.91;100296.88;4993752;28;20219;-71
2022/08/31 02:39:16;;;;;;;3.73;3.17;;;;;;;20.19;54.88;100284.72;4978847;28;20184;-74
2022/08/31 02:41:42;;;;;;;6.33;3.70;;;;;;;20.23;55.53;100297.38;4984994;28;20234;-75
2022/08/31 02:44:07;;;;;;;5.60;3.43;;;;;;;20.28;54.87;100302.16;4995721;28;20198;-70
2022/08/31 02:46:32;;;;;;;5.57;2.73;;;;;;;20.22;54.83;100292.25;4992487;28;20179;-70
2022/08/31 02:49:00;;;;;;;3.87;2.97;;;;;;;20.07;55.63;100289.28;5008899;28;20199;-70
2022/08/31 02:51:25;;;;;;;6.17;3.10;;;;;;;20.07;55.89;100300.56;4980367;28;20754;-69
2022/08/31 02:53:50;;;;;;;4.70;3.10;;;;;;;20.09;55.61;100306.44;4982480;28;20199;-70
2022/08/31 02:56:16;;;;;;;5.33;3.03;;;;;;;20.08;55.89;100307.44;4989635;28;20188;-70
2022/08/31 02:58:41;;;;;;;8.50;2.80;;;;;;;20.13;55.45;100300.00;4994257;28;20559;-70
2022/08/31 03:01:07;;;;;;;4.97;3.20;;;;;;;20.05;55.96;100302.47;4962438;28;20293;-70
2022/08/31 03:03:33;;;;;;;8.77;3.17;;;;;;;20.06;56.00;100298.09;4984656;28;20270;-70
2022/08/31 03:05:59;;;;;;;3.60;2.80;;;;;;;20.04;56.23;100290.38;4990512;28;20192;-71
2022/08/31 03:08:24;;;;;;;3.27;2.70;;;;;;;20.04;55.91;100293.00;4989103;28;20188;-70
2022/08/31 03:10:50;;;;;;;6.40;3.17;;;;;;;19.99;56.47;100290.00;4977518;28;20252;-70
2022/08/31 03:13:15;;;;;;;4.37;2.67;;;;;;;19.95;56.70;100297.28;4996373;28;20226;-71
2022/08/31 03:15:41;;;;;;;5.43;3.33;;;;;;;19.90;56.93;100304.72;4986946;28;20693;-70
2022/08/31 03:18:06;;;;;;;3.27;2.97;;;;;;;19.93;57.01;100301.84;5001647;28;20550;-70
2022/08/31 03:20:32;;;;;;;3.53;3.10;;;;;;;19.87;57.03;100302.41;4998750;28;20253;-70
2022/08/31 03:22:57;;;;;;;3.70;3.33;;;;;;;19.86;57.36;100292.91;5004354;28;20183;-70
2022/08/31 03:25:23;;;;;;;5.57;2.73;;;;;;;19.89;57.26;100292.63;4991107;28;20953;-70
2022/08/31 03:27:48;;;;;;;4.60;3.20;;;;;;;19.88;57.81;100290.97;4987731;28;20636;-71
2022/08/31 03:30:18;;;;;;;5.67;2.83;;;;;;;19.88;57.02;100293.56;4982076;28;20194;-71
2022/08/31 03:32:46;;;;;;;3.83;3.10;;;;;;;20.07;56.87;100300.56;5006265;28;20711;-71
2022/08/31 03:35:13;;;;;;;7.30;3.33;;;;;;;20.08;56.46;100297.00;4994607;28;20186;-71
2022/08/31 03:37:39;;;;;;;5.23;3.33;;;;;;;19.95;57.35;100294.66;4985382;28;20180;-71
2022/08/31 03:40:04;;;;;;;4.77;3.20;;;;;;;19.94;57.56;100298.22;4971237;28;20718;-71
2022/08/31 03:42:30;;;;;;;5.97;3.23;;;;;;;20.02;57.46;100301.94;4994844;28;20188;-71
2022/08/31 03:44:55;;;;;;;5.13;3.00;;;;;;;19.96;57.63;100301.53;4964007;28;20195;-71
2022/08/31 03:47:20;;;;;;;4.73;2.80;;;;;;;19.90;57.77;100299.50;4968739;28;20270;-72
2022/08/31 03:49:46;;;;;;;6.20;3.40;;;;;;;19.92;58.05;100308.00;4963142;28;20200;-69
2022/08/31 03:52:11;;;;;;;12.13;3.80;;;;;;;19.89;58.33;100307.47;4982961;28;20266;-71
2022/08/31 03:54:37;;;;;;;3.77;2.70;;;;;;;19.90;58.72;100306.50;4971886;28;20204;-71
2022/08/31 03:57:04;;;;;;;6.53;3.50;;;;;;;19.78;59.60;100311.00;4994645;28;20188;-71
2022/08/31 03:59:30;;;;;;;5.73;3.17;;;;;;;19.61;60.60;100312.50;4962348;28;20212;-71
2022/08/31 04:01:55;;;;;;;5.90;2.63;;;;;;;19.46;61.85;100320.78;4969778;28;20698;-73
2022/08/31 04:04:20;;;;;;;6.00;3.47;;;;;;;19.52;61.86;100315.00;4967225;28;20185;-69
2022/08/31 04:06:46;;;;;;;6.10;3.20;;;;;;;19.49;62.51;100322.28;4961284;28;20495;-71
2022/08/31 04:09:11;;;;;;;5.67;3.33;;;;;;;19.47;62.88;100325.03;4968185;28;20625;-77
2022/08/31 04:11:42;;;;;;;5.77;3.20;;;;;;;19.45;63.26;100329.56;4984679;28;20230;-70
2022/08/31 04:14:08;;;;;;;6.17;2.97;;;;;;;19.46;63.56;100327.75;4962441;28;20222;-70
2022/08/31 04:16:35;;;;;;;6.60;3.30;;;;;;;19.38;63.88;100333.66;4968828;28;20270;-70
2022/08/31 04:19:01;;;;;;;8.37;3.20;;;;;;;19.33;64.09;100330.63;4966185;28;20197;-70
2022/08/31 04:21:31;;;;;;;5.97;3.60;;;;;;;19.33;64.34;100323.63;4984155;28;20234;-70
2022/08/31 04:23:57;;;;;;;4.87;3.17;;;;;;;19.49;64.10;100327.50;4969133;28;20204;-73
2022/08/31 04:26:27;;;;;;;6.57;3.00;;;;;;;19.56;63.39;100325.16;4985627;28;20195;-70
2022/08/31 04:28:53;;;;;;;4.97;3.10;;;;;;;19.49;63.94;100330.91;4969377;28;20185;-70
2022/08/31 04:31:20;;;;;;;3.73;3.37;;;;;;;19.49;63.80;100338.75;4986699;28;20307;-70
2022/08/31 04:33:45;;;;;;;4.13;3.47;;;;;;;19.42;64.07;100334.22;4997196;28;20663;-71
2022/08/31 04:36:15;;;;;;;5.30;2.97;;;;;;;19.29;65.04;100337.91;4995390;28;20242;-71
2022/08/31 04:38:42;;;;;;;6.13;3.03;;;;;;;19.27;64.73;100339.81;4988927;28;20187;-70
2022/08/31 04:41:09;;;;;;;5.10;3.30;;;;;;;19.30;64.62;100341.31;4983439;28;20240;-69
2022/08/31 04:43:36;;;;;;;5.20;3.33;;;;;;;19.34;64.67;100346.13;4986974;28;20546;-71
2022/08/31 04:46:06;;;;;;;6.53;3.27;;;;;;;19.51;65.16;100343.81;4982925;28;20184;-71
2022/08/31 04:48:32;;;;;;;5.20;3.40;;;;;;;19.43;63.70;100341.88;4981072;28;20176;-72
2022/08/31 04:51:01;;;;;;;6.70;3.70;;;;;;;19.55;63.72;100346.97;4978834;28;20223;-71
2022/08/31 04:53:27;;;;;;;4.03;3.53;;;;;;;19.50;64.56;100357.84;4988645;28;20218;-71
2022/08/31 04:55:52;;;;;;;8.07;3.40;;;;;;;19.44;65.37;100355.78;4990385;28;20659;-71
2022/08/31 04:58:19;;;;;;;4.83;3.67;;;;;;;19.32;65.97;100361.09;4991275;28;20187;-73
2022/08/31 05:00:45;;;;;;;3.93;3.47;;;;;;;19.29;66.72;100365.78;4985432;28;20240;-71
2022/08/31 05:03:10;;;;;;;5.30;3.43;;;;;;;19.23;67.74;100361.91;4991986;28;20195;-72
2022/08/31 05:05:40;;;;;;;8.37;3.80;;;;;;;19.25;67.69;100362.59;4994332;28;20188;-72
2022/08/31 05:08:05;;;;;;;4.83;3.40;;;;;;;19.22;68.16;100375.91;4994748;28;20183;-72
2022/08/31 05:10:31;;;;;;;5.80;3.77;;;;;;;19.27;68.30;100368.50;4987520;28;20242;-72
2022/08/31 05:12:56;;;;;;;8.20;3.70;;;;;;;19.26;68.42;100366.84;4996270;28;20187;-72
2022/08/31 05:15:22;;;;;;;7.90;3.83;;;;;;;19.28;69.12;100370.16;4993408;28;20254;-74
2022/08/31 05:17:47;;;;;;;6.77;3.60;;;;;;;19.19;69.90;100368.34;4994970;28;20639;-73
2022/08/31 05:20:12;;;;;;;8.10;4.00;;;;;;;19.14;70.46;100365.31;4983543;28;20195;-72
2022/08/31 05:22:38;;;;;;;7.23;3.87;;;;;;;19.12;70.87;100370.66;4989362;28;20180;-73
2022/08/31 05:25:05;;;;;;;7.37;3.97;;;;;;;19.14;71.50;100373.16;4993732;28;20533;-73
2022/08/31 05:27:31;;;;;;;4.57;3.97;;;;;;;18.87;74.51;100377.13;4989213;28;20250;-73
2022/08/31 05:29:57;;;;;;;10.00;6.67;;;;;;;18.50;80.33;100375.84;4993112;28;20262;-68
2022/08/31 05:32:22;;;;;;;5.53;4.33;;;;;;;17.84;89.39;100376.03;4986864;28;20229;-71
2022/08/31 05:34:48;;;;;;;7.57;4.47;;;;;;;17.30;98.89;100378.53;4997496;28;20214;-70
2022/08/31 05:37:13;;;;;;;9.70;5.77;;;;;;;16.98;100.00;100376.69;4993059;28;20516;-70
2022/08/31 05:39:38;;;;;;;6.77;5.10;;;;;;;16.82;100.00;100383.94;4994256;28;20611;-73
2022/08/31 05:42:06;;;;;;;8.17;5.80;;;;;;;16.64;100.00;100392.19;4969967;28;20835;-72
2022/08/31 05:44:33;;;;;;;5.70;5.00;;;;;;;16.45;100.00;100391.00;4987117;28;20192;-72
2022/08/31 05:46:59;;;;;;;7.47;5.70;;;;;;;16.34;100.00;100390.16;4985486;28;20184;-73
2022/08/31 05:49:25;;;;;;;6.37;5.50;;;;;;;16.28;100.00;100394.00;4995035;28;20194;-71
2022/08/31 05:51:50;;;;;;;9.60;6.67;;;;;;;16.21;100.00;100391.06;4980589;28;20231;-69
2022/08/31 05:54:16;;;;;;;10.10;5.97;;;;;;;16.22;100.00;100390.09;4991858;28;20254;-62
2022/08/31 05:56:42;;;;;;;9.80;6.40;;;;;;;16.22;100.00;100395.28;5008467;28;20191;-62
2022/08/31 05:59:07;;;;;;;7.80;6.40;;;;;;;16.18;100.00;100393.88;4988161;28;20192;-62
2022/08/31 06:01:36;;;;;;;9.97;6.80;;;;;;;16.21;100.00;100405.78;4985094;28;20243;-63
2022/08/31 06:04:02;;;;;;;9.97;7.73;;;;;;;16.16;100.00;100400.09;4983428;28;20249;-62
2022/08/31 06:06:27;;;;;;;9.27;7.10;;;;;;;16.17;100.00;100397.38;4981587;28;20651;-63
2022/08/31 06:08:53;;;;;;;8.33;6.87;;;;;;;16.08;100.00;100406.69;4986825;28;20698;-63
2022/08/31 06:11:22;;;;;;;10.37;6.37;;;;;;;16.20;100.00;100404.13;4979852;28;20258;-62
2022/08/31 06:13:50;;;;;;;19.10;7.83;;;;;;;16.34;100.00;100403.94;4983350;28;20215;-62
2022/08/31 06:16:16;;;;;;;7.83;7.03;;;;;;;16.43;100.00;100402.44;4990715;28;20615;-63
2022/08/31 06:18:48;;;;;;;9.63;7.20;;;;;;;16.29;100.00;100404.28;4981164;28;20187;-63
2022/08/31 06:21:15;;;;;;;8.47;7.67;;;;;;;16.36;100.00;100403.81;4986699;28;20760;-62
2022/08/31 06:23:41;;;;;;;13.63;7.83;;;;;;;16.47;100.00;100409.03;4986081;28;20246;-62
2022/08/31 06:26:14;;;;;;;11.67;8.23;;;;;;;16.33;100.00;100407.47;4985197;28;20518;-62
2022/08/31 06:28:44;;;;;;;13.23;7.47;;;;;;;16.43;100.00;100408.47;4983437;28;20192;-62
2022/08/31 06:31:17;;;;;;;15.73;9.03;;;;;;;16.57;100.00;100406.59;4992948;28;20233;-62
2022/08/31 06:33:43;;;;;;;12.97;7.50;;;;;;;16.70;100.00;100412.50;4986565;28;20204;-62
2022/08/31 06:36:13;;;;;;;17.73;8.87;;;;;;;16.80;100.00;100407.47;4981698;28;20188;-62
2022/08/31 06:38:39;;;;;;;13.23;9.03;;;;;;;16.88;100.00;100410.31;4983397;28;20279;-63
2022/08/31 06:41:23;;;;;;;14.43;9.77;;;;;;;16.82;100.00;100410.78;4977152;28;20235;-63
2022/08/31 06:43:49;;;;;;;15.83;8.67;;;;;;;16.77;100.00;100410.31;4987992;28;20183;-63
2022/08/31 06:46:17;;;;;;;15.03;9.60;;;;;;;16.75;100.00;100414.78;4985217;28;20188;-62
2022/08/31 06:48:42;;;;;;;11.00;9.80;;;;;;;16.69;100.00;100418.66;4983953;28;20188;-62
2022/08/31 06:51:09;;;;;;;10.37;8.63;;;;;;;16.60;100.00;100427.97;4989995;28;20587;-63
2022/08/31 06:53:36;;;;;;;10.50;8.97;;;;;;;16.64;100.00;100427.75;4997576;28;20202;-64
2022/08/31 06:56:04;;;;;;;12.07;8.83;;;;;;;16.70;100.00;100433.28;4988088;28;20675;-63
2022/08/31 06:58:29;;;;;;;11.00;8.00;;;;;;;16.73;100.00;100437.44;4990830;28;20194;-63
2022/08/31 07:00:57;;;;;;;8.93;8.00;;;;;;;16.87;100.00;100432.03;4973188;28;20231;-62
2022/08/31 07:03:22;;;;;;;13.87;8.27;;;;;;;16.87;100.00;100436.38;4988623;28;20186;-63
2022/08/31 07:05:51;;;;;;;11.17;8.63;;;;;;;16.74;100.00;100434.72;4993487;28;20209;-62
2022/08/31 07:08:18;;;;;;;9.43;8.53;;;;;;;16.60;100.00;100443.53;4992626;28;20241;-64
2022/08/31 07:10:44;;;;;;;9.57;8.17;;;;;;;16.62;100.00;100441.66;4984367;28;20239;-63
2022/08/31 07:13:10;;;;;;;34.63;22.00;;;;;;;16.62;100.00;100444.28;4990817;28;20214;-63
2022/08/31 07:15:36;;;;;;;10.73;8.20;;;;;;;16.52;100.00;100451.09;4985864;28;20238;-62
2022/08/31 07:18:01;;;;;;;11.20;8.03;;;;;;;16.54;100.00;100451.78;4998974;28;20187;-64
2022/08/31 07:20:26;;;;;;;9.83;8.83;;;;;;;16.46;100.00;100459.34;4979342;28;20377;-64
2022/08/31 07:22:52;;;;;;;9.63;8.63;;;;;;;16.35;100.00;100461.88;4989228;28;20176;-64
2022/08/31 07:25:17;;;;;;;15.00;8.60;;;;;;;16.33;100.00;100456.78;4982387;28;20192;-64
2022/08/31 07:27:43;;;;;;;13.90;8.33;;;;;;;16.49;100.00;100466.88;4983202;28;20184;-63
2022/08/31 07:30:09;;;;;;;13.50;9.70;;;;;;;16.51;100.00;100466.78;4954148;28;20213;-64
2022/08/31 07:32:34;;;;;;;13.47;8.97;;;;;;;16.43;100.00;100470.78;4986493;28;20194;-65
2022/08/31 07:34:59;;;;;;;10.90;9.80;;;;;;;16.40;100.00;100477.97;4977166;28;20208;-65
2022/08/31 07:42:54;;;;;;;11.73;10.63;;;;;;;16.18;100.00;100481.28;4989854;28;20554;-64
2022/08/31 07:45:22;;;;;;;12.83;10.13;;;;;;;16.24;100.00;100484.25;4977131;28;20276;-63
2022/08/31 07:47:51;;;;;;;13.13;10.47;;;;;;;16.23;100.00;100485.19;4981079;28;20522;-65
2022/08/31 07:50:18;;;;;;;14.27;10.90;;;;;;;16.33;100.00;100487.13;4972905;28;20195;-65
2022/08/31 07:52:50;;;;;;;12.33;11.13;;;;;;;16.37;100.00;100494.59;4990109;28;20188;-65
2022/08/31 07:55:18;;;;;;;13.57;10.57;;;;;;;16.47;100.00;100492.13;4993273;28;20321;-66
2022/08/31 07:57:43;;;;;;;11.33;10.17;;;;;;;16.54;100.00;100498.53;4991953;28;20186;-66
2022/08/31 08:00:16;;;;;;;18.43;12.13;;;;;;;16.50;100.00;100501.50;4983497;28;20196;-67
2022/08/31 08:02:45;;;;;;;17.83;12.93;;;;;;;16.59;100.00;100504.22;5006152;28;20183;-66
2022/08/31 08:05:20;;;;;;;13.87;12.43;;;;;;;16.44;100.00;100498.38;4989587;28;20191;-65
2022/08/31 08:07:51;;;;;;;16.93;12.77;;;;;;;16.22;100.00;100500.88;4991898;28;20287;-65
2022/08/31 08:10:20;;;;;;;13.63;12.23;;;;;;;16.11;100.00;100501.63;4984074;28;20261;-66
2022/08/31 08:12:56;;;;;;;13.53;12.13;;;;;;;16.23;100.00;100498.16;5003853;28;20199;-67
2022/08/31 08:15:25;;;;;;;17.60;12.73;;;;;;;16.29;100.00;100494.31;4991103;28;20210;-64
2022/08/31 08:17:51;;;;;;;13.83;12.53;;;;;;;16.32;100.00;100501.03;4987750;28;20195;-63
2022/08/31 08:20:17;;;;;;;17.47;13.63;;;;;;;16.38;100.00;100491.03;4980832;28;20187;-65
2022/08/31 08:22:43;;;;;;;16.43;13.03;;;;;;;16.27;100.00;100499.63;5000038;28;20188;-65
2022/08/31 08:25:10;;;;;;;22.83;13.73;;;;;;;16.39;100.00;100500.47;4981649;28;20553;-64
2022/08/31 08:27:36;;;;;;;17.63;12.67;;;;;;;16.38;100.00;100496.22;4985378;28;20274;-64
2022/08/31 08:30:04;;;;;;;14.20;12.70;;;;;;;16.50;100.00;100499.72;4994387;28;20589;-63
2022/08/31 08:32:30;;;;;;;13.47;11.93;;;;;;;16.50;100.00;100502.31;4994313;28;20360;-64
2022/08/31 08:34:56;;;;;;;16.00;13.77;;;;;;;16.55;100.00;100505.38;4987087;28;20662;-64
2022/08/31 08:37:21;;;;;;;12.70;11.50;;;;;;;16.54;100.00;100505.50;4998459;28;20204;-64
2022/08/31 08:39:48;;;;;;;12.40;10.93;;;;;;;16.58;100.00;100501.72;4991893;28;20698;-64
2022/08/31 08:42:14;;;;;;;12.30;10.43;;;;;;;16.64;100.00;100503.06;4999680;28;20219;-64
2022/08/31 08:44:41;;;;;;;14.20;11.83;;;;;;;16.87;100.00;100501.34;4995950;28;20195;-64
2022/08/31 08:47:13;;;;;;;12.73;10.50;;;;;;;16.65;100.00;100510.72;4995447;28;20179;-63
2022/08/31 08:49:44;;;;;;;12.37;9.83;;;;;;;16.59;100.00;100512.00;4990913;28;20184;-64
2022/08/31 08:52:21;;;;;;;11.97;10.73;;;;;;;16.60;100.00;100502.47;4984193;28;20222;-65
2022/08/31 08:54:49;;;;;;;16.10;10.77;;;;;;;16.64;100.00;100506.47;4988866;28;20214;-65
2022/08/31 08:57:23;;;;;;;12.63;11.33;;;;;;;16.60;100.00;100513.66;4991799;28;20247;-65
2022/08/31 08:59:52;;;;;;;12.73;11.33;;;;;;;16.67;100.00;100510.63;4992759;28;20713;-64
2022/08/31 09:02:22;;;;;;;13.33;10.60;;;;;;;16.59;100.00;100514.59;5001350;28;20230;-65
2022/08/31 09:05:14;;;;;;;13.33;12.07;;;;;;;16.61;100.00;100517.09;4995949;28;20192;-65
2022/08/31 09:07:41;;;;;;;16.47;13.23;;;;;;;16.86;100.00;100513.50;4994118;28;20187;-65
2022/08/31 09:10:11;;;;;;;13.77;12.37;;;;;;;16.81;100.00;100509.59;4982539;28;20671;-66
2022/08/31 09:12:56;;;;;;;12.80;11.57;;;;;;;16.61;100.00;100511.91;4992691;28;20192;-64
2022/08/31 09:15:45;;;;;;;12.87;11.33;;;;;;;16.64;100.00;100511.66;4977826;28;20214;-65
2022/08/31 09:18:38;;;;;;;15.00;13.40;;;;;;;16.68;100.00;100507.09;4993935;28;20180;-65
2022/08/31 09:21:16;;;;;;;15.83;13.27;;;;;;;16.74;100.00;100515.22;5000955;28;20254;-65
2022/08/31 09:23:51;;;;;;;22.37;12.00;;;;;;;16.80;100.00;100511.38;5000492;28;20294;-63
2022/08/31 09:26:18;;;;;;;21.00;12.63;;;;;;;16.93;100.00;100511.31;4993104;28;20600;-66
2022/08/31 09:28:47;;;;;;;12.73;11.53;;;;;;;16.88;100.00;100519.44;4994173;28;20195;-66
2022/08/31 09:31:40;;;;;;;16.13;12.37;;;;;;;17.03;100.00;100525.28;4996736;28;20241;-65
2022/08/31 09:34:27;;;;;;;14.83;12.10;;;;;;;17.24;100.00;100528.03;4986148;28;20322;-65
2022/08/31 09:37:14;;;;;;;12.47;10.93;;;;;;;17.13;100.00;100534.97;4985258;28;20180;-66
2022/08/31 09:39:46;;;;;;;12.27;10.33;;;;;;;16.90;100.00;100530.53;4981807;28;20216;-64
2022/08/31 09:42:32;;;;;;;12.37;11.17;;;;;;;16.82;100.00;100530.28;4984921;28;20735;-65
2022/08/31 09:45:06;;;;;;;14.30;10.57;;;;;;;17.04;100.00;100524.34;4985003;28;20200;-63
2022/08/31 09:47:46;;;;;;;12.53;10.27;;;;;;;16.87;100.00;100532.50;4979952;28;20195;-63
2022/08/31 09:50:33;;;;;;;12.77;10.63;;;;;;;17.00;100.00;100525.50;4972988;28;20192;-73
2022/08/31 09:56:21;;;;;;;10.90;9.80;;;;;;;16.88;100.00;100528.97;4980063;28;20194;-65
2022/08/31 09:59:00;;;;;;;10.73;9.73;;;;;;;16.90;100.00;100532.31;4989302;28;20176;-65
2022/08/31 10:01:43;;;;;;;12.43;11.03;;;;;;;16.92;100.00;100528.69;4985223;28;20303;-65
2022/08/31 10:04:26;;;;;;;11.57;10.40;;;;;;;17.26;100.00;100531.31;4984460;28;20188;-67
2022/08/31 10:07:16;;;;;;;11.63;10.43;;;;;;;17.37;100.00;100527.91;4975900;28;20183;-64
2022/08/31 10:09:45;;;;;;;11.97;10.77;;;;;;;17.46;100.00;100518.56;4983966;28;20213;-65
2022/08/31 10:12:20;;;;;;;14.83;12.77;;;;;;;17.54;100.00;100533.59;4989517;28;20326;-64
2022/08/31 10:15:02;;;;;;;13.33;11.93;;;;;;;17.56;100.00;100537.75;4991189;28;20547;-64
2022/08/31 10:17:37;;;;;;;13.77;12.07;;;;;;;17.56;100.00;100536.91;5003870;28;20662;-65
2022/08/31 10:20:10;;;;;;;11.87;10.77;;;;;;;17.43;100.00;100537.03;4975260;28;20595;-64
2022/08/31 10:22:45;;;;;;;12.13;11.00;;;;;;;17.68;100.00;100535.94;5003955;28;20662;-65
2022/08/31 10:25:29;;;;;;;10.97;8.97;;;;;;;17.54;100.00;100525.81;4987445;28;20183;-65
2022/08/31 10:28:10;;;;;;;10.70;9.53;;;;;;;17.83;100.00;100531.31;5008398;28;20179;-65
2022/08/31 10:31:12;;;;;;;9.80;8.90;;;;;;;17.89;100.00;100523.03;4984848;28;20642;-66
2022/08/31 10:36:41;;;;;;;12.03;10.93;;;;;;;18.48;100.00;100530.59;4987247;28;20539;-65
2022/08/31 10:39:36;;;;;;;12.37;11.27;;;;;;;18.47;100.00;100518.53;4988064;28;20191;-64
2022/08/31 10:42:06;;;;;;;14.17;11.07;;;;;;;18.42;100.00;100520.69;4986968;28;20220;-63
2022/08/31 10:44:55;;;;;;;10.30;9.40;;;;;;;18.51;100.00;100517.34;4988845;28;20219;-64
2022/08/31 10:47:27;;;;;;;14.10;10.87;;;;;;;18.83;100.00;100517.28;4984115;28;20205;-63
2022/08/31 10:49:55;;;;;;;11.07;9.90;;;;;;;18.83;100.00;100521.69;4985488;28;20651;-65
2022/08/31 10:52:28;;;;;;;10.87;9.80;;;;;;;18.96;100.00;100524.94;4998938;28;20298;-64
2022/08/31 10:55:13;;;;;;;12.47;9.30;;;;;;;19.15;100.00;100519.03;4993127;28;20215;-65
2022/08/31 10:58:17;;;;;;;10.90;9.90;;;;;;;19.28;100.00;100518.81;4993610;28;20179;-64
2022/08/31 11:00:51;;;;;;;10.93;9.27;;;;;;;19.23;100.00;100514.94;4968775;28;20228;-60
2022/08/31 11:03:39;;;;;;;11.33;9.70;;;;;;;18.96;100.00;100519.72;4981344;28;20691;-68
2022/08/31 11:06:19;;;;;;;10.60;9.60;;;;;;;18.91;100.00;100516.69;4987069;28;20181;-68
2022/08/31 11:08:48;;;;;;;10.80;9.70;;;;;;;19.28;100.00;100510.97;4972189;28;20195;-69
2022/08/31 11:11:41;;;;;;;12.00;9.23;;;;;;;19.52;100.00;100509.84;4970824;28;20330;-68
2022/08/31 11:14:26;;;;;;;10.73;9.57;;;;;;;19.62;100.00;100509.88;4973044;28;20208;-68
2022/08/31 11:17:18;;;;;;;8.90;8.00;;;;;;;19.54;100.00;100509.72;4976280;28;20227;-66
2022/08/31 11:19:55;;;;;;;10.70;8.57;;;;;;;19.64;100.00;100508.78;4971146;28;20187;-67
2022/08/31 11:22:36;;;;;;;9.07;7.77;;;;;;;19.56;100.00;100511.25;4977108;28;20314;-67
2022/08/31 11:25:43;;;;;;;9.20;8.40;;;;;;;19.77;100.00;100505.09;4971412;28;20187;-68
2022/08/31 11:28:17;;;;;;;9.60;8.70;;;;;;;20.14;100.00;100504.50;4986746;28;20193;-67
2022/08/31 11:30:47;;;;;;;8.57;7.87;;;;;;;20.47;100.00;100505.06;4937762;28;20256;-68
2022/08/31 11:33:19;;;;;;;9.40;8.60;;;;;;;20.50;100.00;100502.16;4947685;28;20514;-68
2022/08/31 11:35:48;;;;;;;10.00;8.47;;;;;;;20.70;100.00;100500.38;4972623;28;20188;-67
2022/08/31 11:38:53;;;;;;;8.77;7.77;;;;;;;20.91;100.00;100502.00;4963605;28;20267;-68
2022/08/31 11:41:54;;;;;;;9.30;8.27;;;;;;;21.36;100.00;100506.56;4967302;28;20238;-67
2022/08/31 11:44:32;;;;;;;9.53;8.20;;;;;;;21.57;100.00;100505.50;4936903;29;20189;-67